createdAt,value
2018-09-03T00:00:41.113Z,15.68
2018-09-03T00:03:09.245Z,15.70
2018-09-03T00:05:37.248Z,15.62
2018-09-03T00:08:05.385Z,15.60
2018-09-03T00:10:33.446Z,15.60
2018-09-03T00:13:01.494Z,15.59
2018-09-03T00:15:29.590Z,15.53
2018-09-03T00:17:57.715Z,15.46
2018-09-03T00:20:25.755Z,15.41
2018-09-03T00:22:53.764Z,15.34
2018-09-03T00:25:21.893Z,15.31
2018-09-03T00:27:50.098Z,15.29
2018-09-03T00:30:18.212Z,15.20
2018-09-03T00:32:51.985Z,15.13
2018-09-03T00:35:25.624Z,15.12
2018-09-03T00:37:59.182Z,15.06
2018-09-03T00:40:33.139Z,15.04
2018-09-03T00:44:06.899Z,15.00
2018-09-03T00:46:40.553Z,14.96
2018-09-03T00:49:08.692Z,14.97
2018-09-03T00:51:36.811Z,14.97
2018-09-03T00:54:05.003Z,15.01
2018-09-03T00:56:33.314Z,15.02
2018-09-03T00:59:01.505Z,15.09
2018-09-03T01:01:29.643Z,15.16
2018-09-03T01:03:57.718Z,15.16
2018-09-03T01:06:25.728Z,15.12
2018-09-03T01:08:53.827Z,15.05
2018-09-03T01:11:24.635Z,15.10
2018-09-03T01:13:53.422Z,15.09
2018-09-03T01:16:21.579Z,15.07
2018-09-03T01:18:54.255Z,15.06
2018-09-03T01:21:23.049Z,15.02
2018-09-03T01:23:51.079Z,15.00
2018-09-03T01:26:19.065Z,14.97
2018-09-03T01:28:47.108Z,14.94
2018-09-03T01:31:17.949Z,14.81
2018-09-03T01:33:47.016Z,14.76
2018-09-03T01:36:15.299Z,14.70
2018-09-03T01:38:43.341Z,14.62
2018-09-03T01:41:11.418Z,14.59
2018-09-03T01:43:39.575Z,14.73
2018-09-03T01:46:07.650Z,14.78
2018-09-03T01:48:35.656Z,14.74
2018-09-03T01:51:04.235Z,14.61
2018-09-03T01:53:32.530Z,14.62
2018-09-03T01:56:00.558Z,14.61
2018-09-03T01:58:28.745Z,14.60
2018-09-03T02:00:56.760Z,14.59
2018-09-03T02:03:24.912Z,14.54
2018-09-03T02:05:53.076Z,14.59
2018-09-03T02:08:21.267Z,14.63
2018-09-03T02:10:49.408Z,14.64
2018-09-03T02:13:17.524Z,14.65
2018-09-03T02:15:45.553Z,14.67
2018-09-03T02:18:13.628Z,14.73
2018-09-03T02:20:41.674Z,14.78
2018-09-03T02:23:09.687Z,14.82
2018-09-03T02:25:37.738Z,14.84
2018-09-03T02:28:05.871Z,14.87
2018-09-03T02:30:33.960Z,14.89
2018-09-03T02:33:02.064Z,15.02
2018-09-03T02:35:30.116Z,14.95
2018-09-03T02:37:58.131Z,14.96
2018-09-03T02:40:26.117Z,14.85
2018-09-03T02:42:54.240Z,14.84
2018-09-03T02:45:22.394Z,14.84
2018-09-03T02:47:50.444Z,14.81
2018-09-03T02:50:18.529Z,14.84
2018-09-03T02:52:46.808Z,14.79
2018-09-03T02:55:14.894Z,14.78
2018-09-03T02:57:42.987Z,14.72
2018-09-03T03:00:11.099Z,14.62
2018-09-03T03:02:39.220Z,14.74
2018-09-03T03:05:07.298Z,14.68
2018-09-03T03:07:35.414Z,14.54
2018-09-03T03:10:03.450Z,14.47
2018-09-03T03:12:31.558Z,14.39
2018-09-03T03:14:59.737Z,14.30
2018-09-03T03:17:28.093Z,14.21
2018-09-03T03:19:56.123Z,14.13
2018-09-03T03:22:24.206Z,14.07
2018-09-03T03:24:52.183Z,14.06
2018-09-03T03:27:20.235Z,14.04
2018-09-03T03:29:48.285Z,13.94
2018-09-03T03:32:16.294Z,13.88
2018-09-03T03:34:44.390Z,13.84
2018-09-03T03:37:12.505Z,13.80
2018-09-03T03:39:40.586Z,13.79
2018-09-03T03:42:08.819Z,13.71
2018-09-03T03:44:37.207Z,13.74
2018-09-03T03:47:05.670Z,13.73
2018-09-03T03:49:33.692Z,13.66
2018-09-03T03:52:01.893Z,13.66
2018-09-03T03:54:30.088Z,13.71
2018-09-03T03:56:58.316Z,13.65
2018-09-03T03:59:26.361Z,13.64
2018-09-03T04:01:54.507Z,13.72
2018-09-03T04:04:22.600Z,13.76
2018-09-03T04:06:50.693Z,13.78
2018-09-03T04:09:18.793Z,13.81
2018-09-03T04:11:46.836Z,13.84
2018-09-03T04:14:14.841Z,13.82
2018-09-03T04:16:42.908Z,13.86
2018-09-03T04:19:11.004Z,13.93
2018-09-03T04:21:39.049Z,13.99
2018-09-03T04:24:07.023Z,14.06
2018-09-03T04:26:35.048Z,14.18
2018-09-03T04:29:03.107Z,14.44
2018-09-03T04:31:31.260Z,14.68
2018-09-03T04:33:59.327Z,14.73
2018-09-03T04:36:27.560Z,14.71
2018-09-03T04:38:55.648Z,14.77
2018-09-03T04:41:23.726Z,14.98
2018-09-03T04:43:51.767Z,15.72
2018-09-03T04:46:19.920Z,16.42
2018-09-03T04:48:48.003Z,17.20
2018-09-03T04:51:16.123Z,17.79
2018-09-03T04:53:44.326Z,17.88
2018-09-03T04:56:12.507Z,18.28
2018-09-03T04:58:40.595Z,18.33
2018-09-03T05:01:08.811Z,18.81
2018-09-03T05:03:36.956Z,19.16
2018-09-03T05:06:05.223Z,19.38
2018-09-03T05:08:33.499Z,19.18
2018-09-03T05:11:01.676Z,18.75
2018-09-03T05:13:29.748Z,18.83
2018-09-03T05:15:57.825Z,18.94
2018-09-03T05:18:26.031Z,19.44
2018-09-03T05:20:54.232Z,19.50
2018-09-03T05:23:22.619Z,19.32
2018-09-03T05:25:50.750Z,18.70
2018-09-03T05:28:19.234Z,17.92
2018-09-03T05:30:47.426Z,17.33
2018-09-03T05:33:15.860Z,17.29
2018-09-03T05:35:43.949Z,17.00
2018-09-03T05:38:12.118Z,16.84
2018-09-03T05:40:40.496Z,17.05
2018-09-03T05:43:08.691Z,17.14
2018-09-03T05:45:36.899Z,17.24
2018-09-03T05:48:05.608Z,17.35
2018-09-03T05:50:33.798Z,17.47
2018-09-03T05:53:01.865Z,17.49
2018-09-03T05:55:30.039Z,17.99
2018-09-03T05:57:58.127Z,17.60
2018-09-03T06:00:26.372Z,17.45
2018-09-03T06:02:54.530Z,17.39
2018-09-03T06:05:22.693Z,17.98
2018-09-03T06:07:50.913Z,18.73
2018-09-03T06:10:19.211Z,19.14
2018-09-03T06:12:47.413Z,19.81
2018-09-03T06:15:15.501Z,20.08
2018-09-03T06:17:43.549Z,20.33
2018-09-03T06:20:12.066Z,20.09
2018-09-03T06:22:40.324Z,19.39
2018-09-03T06:25:09.026Z,19.65
2018-09-03T06:27:37.428Z,19.67
2018-09-03T06:30:05.727Z,19.41
2018-09-03T06:32:34.082Z,20.25
2018-09-03T06:35:02.339Z,20.61
2018-09-03T06:37:30.558Z,20.57
2018-09-03T06:39:58.910Z,20.89
2018-09-03T06:42:27.042Z,20.90
2018-09-03T06:44:55.359Z,21.03
2018-09-03T06:47:23.676Z,21.39
2018-09-03T06:49:52.427Z,21.56
2018-09-03T06:52:20.609Z,21.47
2018-09-03T06:54:48.841Z,21.35
2018-09-03T06:57:17.004Z,21.63
2018-09-03T06:59:45.160Z,21.93
2018-09-03T07:02:13.277Z,21.86
2018-09-03T07:04:41.666Z,22.36
2018-09-03T07:07:09.758Z,22.44
2018-09-03T07:09:37.929Z,22.54
2018-09-03T07:12:05.884Z,22.55
2018-09-03T07:14:34.107Z,22.75
2018-09-03T07:17:02.308Z,22.81
2018-09-03T07:19:30.498Z,22.84
2018-09-03T07:21:58.959Z,23.04
2018-09-03T07:24:27.112Z,23.02
2018-09-03T07:26:55.202Z,23.19
2018-09-03T07:29:23.465Z,23.38
2018-09-03T07:31:51.678Z,23.68
2018-09-03T07:34:20.459Z,23.84
2018-09-03T07:36:48.678Z,24.02
2018-09-03T07:39:17.167Z,23.82
2018-09-03T07:41:45.482Z,23.93
2018-09-03T07:44:13.708Z,24.03
2018-09-03T07:46:41.843Z,24.20
2018-09-03T07:49:09.944Z,24.59
2018-09-03T07:51:38.033Z,24.78
2018-09-03T07:54:06.169Z,24.77
2018-09-03T07:56:34.332Z,25.19
2018-09-03T07:59:02.402Z,25.25
2018-09-03T08:01:30.519Z,25.41
2018-09-03T08:03:58.697Z,25.92
2018-09-03T08:06:26.958Z,25.76
2018-09-03T08:08:55.843Z,25.30
2018-09-03T08:11:24.898Z,25.46
2018-09-03T08:13:53.367Z,25.75
2018-09-03T08:16:22.029Z,26.01
2018-09-03T08:18:50.481Z,25.86
2018-09-03T08:21:18.843Z,25.75
2018-09-03T08:23:47.505Z,25.97
2018-09-03T08:26:15.847Z,25.86
2018-09-03T08:28:45.000Z,26.15
2018-09-03T08:31:13.490Z,26.06
2018-09-03T08:33:41.649Z,26.37
2018-09-03T08:36:10.221Z,26.37
2018-09-03T08:38:38.516Z,26.23
2018-09-03T08:41:07.714Z,26.38
2018-09-03T08:43:35.985Z,26.50
2018-09-03T08:46:04.118Z,26.59
2018-09-03T08:48:32.273Z,26.80
2018-09-03T08:51:00.669Z,26.81
2018-09-03T08:53:29.353Z,27.45
2018-09-03T08:55:57.656Z,27.49
2018-09-03T08:58:26.325Z,27.23
2018-09-03T09:00:54.836Z,27.69
2018-09-03T09:03:28.740Z,27.71
2018-09-03T09:05:57.130Z,27.75
2018-09-03T09:08:26.462Z,28.00
2018-09-03T09:10:56.177Z,27.71
2018-09-03T09:13:26.069Z,27.76
2018-09-03T09:15:54.288Z,27.78
2018-09-03T09:18:23.664Z,27.92
2018-09-03T09:20:59.650Z,28.59
2018-09-03T09:23:32.914Z,28.11
2018-09-03T09:26:09.907Z,28.13
2018-09-03T09:28:45.120Z,29.41
2018-09-03T09:31:19.830Z,29.67
2018-09-03T09:33:48.977Z,29.10
2018-09-03T09:36:17.370Z,28.99
2018-09-03T09:38:45.599Z,28.60
2018-09-03T09:41:13.771Z,28.45
2018-09-03T09:43:42.429Z,28.68
2018-09-03T09:46:13.442Z,28.62
2018-09-03T09:48:42.966Z,28.70
2018-09-03T09:51:11.910Z,29.28
2018-09-03T09:53:40.101Z,29.72
2018-09-03T09:56:08.251Z,29.70
2018-09-03T09:58:36.491Z,29.49
2018-09-03T10:01:10.290Z,30.01
2018-09-03T10:03:38.500Z,29.81
2018-09-03T10:06:06.762Z,30.45
2018-09-03T10:08:35.043Z,30.37
2018-09-03T10:11:03.325Z,30.76
2018-09-03T10:13:31.593Z,30.98
2018-09-03T10:16:00.201Z,30.10
2018-09-03T10:18:28.336Z,29.88
2018-09-03T10:20:56.568Z,30.38
2018-09-03T10:23:24.939Z,30.52
2018-09-03T10:25:53.041Z,30.55
2018-09-03T10:28:21.403Z,30.38
2018-09-03T10:30:49.714Z,30.24
2018-09-03T10:33:18.135Z,30.38
2018-09-03T10:35:46.244Z,30.11
2018-09-03T10:38:14.641Z,29.78
2018-09-03T10:40:42.855Z,29.48
2018-09-03T10:43:11.022Z,29.30
2018-09-03T10:45:44.296Z,29.12
2018-09-03T10:48:13.901Z,29.25
2018-09-03T10:50:45.438Z,29.07
2018-09-03T10:53:13.705Z,29.75
2018-09-03T10:55:42.189Z,30.48
2018-09-03T10:58:11.194Z,31.21
2018-09-03T11:00:39.566Z,31.20
2018-09-03T11:03:08.187Z,31.49
2018-09-03T11:05:36.651Z,31.79
2018-09-03T11:08:05.025Z,31.45
2018-09-03T11:10:33.227Z,31.22
2018-09-03T11:13:01.674Z,31.02
2018-09-03T11:15:29.812Z,30.83
2018-09-03T11:17:57.952Z,31.03
2018-09-03T11:20:27.453Z,31.23
2018-09-03T11:22:56.139Z,31.28
2018-09-03T11:25:25.813Z,31.04
2018-09-03T11:27:54.913Z,31.27
2018-09-03T11:30:23.783Z,31.40
2018-09-03T11:32:59.079Z,31.49
2018-09-03T11:35:27.355Z,31.48
2018-09-03T11:37:55.630Z,31.66
2018-09-03T11:40:24.722Z,31.30
2018-09-03T11:42:53.282Z,31.25
2018-09-03T11:45:22.693Z,31.47
2018-09-03T11:47:50.905Z,31.46
2018-09-03T11:50:19.918Z,31.55
2018-09-03T11:52:48.442Z,31.72
2018-09-03T11:55:16.889Z,31.41
2018-09-03T11:57:45.403Z,31.46
2018-09-03T12:00:20.519Z,31.05
2018-09-03T12:02:49.047Z,31.22
2018-09-03T12:05:17.423Z,31.07
2018-09-03T12:07:45.652Z,30.21
2018-09-03T12:10:13.807Z,29.70
2018-09-03T12:12:42.597Z,29.93
2018-09-03T12:15:15.543Z,30.15
2018-09-03T12:17:43.742Z,30.68
2018-09-03T12:20:11.902Z,30.97
2018-09-03T12:22:40.209Z,30.45
2018-09-03T12:25:08.549Z,30.82
2018-09-03T12:27:36.656Z,31.29
2018-09-03T12:30:07.984Z,31.43
2018-09-03T12:32:37.393Z,31.24
2018-09-03T12:35:07.378Z,30.47
2018-09-03T12:37:36.703Z,30.62
2018-09-03T12:40:08.924Z,30.44
2018-09-03T12:42:38.785Z,30.28
2018-09-03T12:45:10.727Z,30.35
2018-09-03T12:47:39.177Z,30.46
2018-09-03T12:50:08.118Z,30.44
2018-09-03T12:52:40.158Z,30.67
2018-09-03T12:55:10.223Z,30.49
2018-09-03T12:57:41.325Z,30.63
2018-09-03T13:00:17.613Z,30.47
2018-09-03T13:02:56.169Z,30.94
2018-09-03T13:05:25.775Z,30.98
2018-09-03T13:07:54.858Z,31.09
2018-09-03T13:10:23.103Z,31.07
2018-09-03T13:12:51.182Z,30.87
2018-09-03T13:15:19.233Z,31.00
2018-09-03T13:17:47.353Z,30.64
2018-09-03T13:20:15.518Z,30.72
2018-09-03T13:22:43.735Z,30.66
2018-09-03T13:25:11.821Z,30.51
2018-09-03T13:27:39.901Z,30.22
2018-09-03T13:30:09.215Z,30.03
2018-09-03T13:32:37.407Z,30.21
2018-09-03T13:35:05.714Z,29.73
2018-09-03T13:37:33.863Z,29.31
2018-09-03T13:40:02.090Z,29.01
2018-09-03T13:42:30.667Z,29.19
2018-09-03T13:44:58.841Z,29.24
2018-09-03T13:47:27.213Z,29.05
2018-09-03T13:49:55.417Z,28.78
2018-09-03T13:52:23.458Z,28.62
2018-09-03T13:54:51.719Z,28.57
2018-09-03T13:57:19.853Z,28.44
2018-09-03T13:59:48.304Z,28.41
2018-09-03T14:02:16.423Z,28.47
2018-09-03T14:04:44.710Z,28.41
2018-09-03T14:07:12.863Z,28.45
2018-09-03T14:09:42.514Z,28.65
2018-09-03T14:12:13.771Z,28.04
2018-09-03T14:14:42.071Z,27.78
2018-09-03T14:17:10.319Z,27.37
2018-09-03T14:19:38.557Z,27.12
2018-09-03T14:22:06.927Z,26.79
2018-09-03T14:24:35.303Z,26.97
2018-09-03T14:27:28.375Z,26.79
2018-09-03T14:30:02.620Z,26.52
2018-09-03T14:32:30.985Z,26.30
2018-09-03T14:34:59.269Z,26.06
2018-09-03T14:37:27.637Z,25.91
2018-09-03T14:39:55.761Z,25.88
2018-09-03T14:42:24.009Z,25.65
2018-09-03T14:44:52.215Z,25.46
2018-09-03T14:47:20.412Z,25.21
2018-09-03T14:49:48.608Z,25.02
2018-09-03T14:52:16.743Z,24.79
2018-09-03T14:54:45.711Z,24.51
2018-09-03T14:57:13.863Z,24.46
2018-09-03T14:59:46.555Z,24.14
2018-09-03T15:02:16.459Z,23.83
2018-09-03T15:04:44.783Z,23.53
2018-09-03T15:07:12.859Z,23.53
2018-09-03T15:09:40.999Z,23.54
2018-09-03T15:12:24.928Z,23.48
2018-09-03T15:14:56.508Z,23.36
2018-09-03T15:17:24.590Z,23.26
2018-09-03T15:19:52.706Z,22.98
2018-09-03T15:22:20.804Z,22.99
2018-09-03T15:24:48.905Z,23.02
2018-09-03T15:27:17.092Z,22.92
2018-09-03T15:29:45.371Z,22.76
2018-09-03T15:32:21.557Z,22.60
2018-09-03T15:34:52.156Z,22.69
2018-09-03T15:37:21.897Z,22.73
2018-09-03T15:39:52.113Z,22.57
2018-09-03T15:42:23.215Z,22.30
2018-09-03T15:44:54.268Z,22.31
2018-09-03T15:47:26.432Z,22.31
2018-09-03T15:49:56.744Z,22.00
2018-09-03T15:52:27.329Z,22.04
2018-09-03T15:54:57.326Z,21.93
2018-09-03T15:57:29.813Z,21.82
2018-09-03T16:00:01.009Z,21.72
2018-09-03T16:02:31.619Z,21.72
2018-09-03T16:05:03.118Z,21.62
2018-09-03T16:07:31.592Z,21.40
2018-09-03T16:09:59.790Z,21.31
2018-09-03T16:12:28.208Z,21.37
2018-09-03T16:14:56.567Z,21.11
2018-09-03T16:17:24.735Z,21.06
2018-09-03T16:19:53.434Z,21.22
2018-09-03T16:22:21.968Z,21.11
2018-09-03T16:25:06.492Z,21.25
2018-09-03T16:27:35.595Z,21.13
2018-09-03T16:30:04.611Z,21.00
2018-09-03T16:32:35.176Z,20.99
2018-09-03T16:35:03.697Z,21.00
2018-09-03T16:37:32.261Z,20.95
2018-09-03T16:40:00.866Z,20.92
2018-09-03T16:42:36.186Z,20.84
2018-09-03T16:45:06.391Z,20.66
2018-09-03T16:47:38.375Z,20.64
2018-09-03T16:50:08.312Z,20.47
2018-09-03T16:52:36.560Z,20.34
2018-09-03T16:55:05.293Z,20.25
2018-09-03T16:57:33.737Z,19.99
2018-09-03T17:00:06.858Z,19.88
2018-09-03T17:02:41.603Z,19.89
2018-09-03T17:05:13.792Z,19.76
2018-09-03T17:07:42.146Z,19.50
2018-09-03T17:10:10.859Z,19.42
2018-09-03T17:12:39.877Z,19.30
2018-09-03T17:15:08.050Z,19.21
2018-09-03T17:17:36.251Z,19.34
2018-09-03T17:20:05.005Z,19.02
2018-09-03T17:22:33.292Z,18.97
2018-09-03T17:25:01.585Z,18.98
2018-09-03T17:27:29.839Z,19.06
2018-09-03T17:29:58.166Z,18.96
2018-09-03T17:32:26.408Z,18.96
2018-09-03T17:34:54.640Z,18.84
2018-09-03T17:37:23.147Z,18.86
2018-09-03T17:39:51.187Z,18.87
2018-09-03T17:42:19.629Z,18.90
2018-09-03T17:44:47.956Z,18.95
2018-09-03T17:47:16.298Z,18.98
2018-09-03T17:49:44.554Z,19.01
2018-09-03T17:52:12.819Z,19.04
2018-09-03T17:54:41.272Z,19.06
2018-09-03T17:57:11.308Z,18.99
2018-09-03T17:59:39.725Z,19.03
2018-09-03T18:02:08.360Z,19.00
2018-09-03T18:04:36.817Z,19.01
2018-09-03T18:07:05.149Z,18.98
2018-09-03T18:09:33.324Z,18.98
2018-09-03T18:12:04.081Z,18.90
2018-09-03T18:14:32.529Z,18.87
2018-09-03T18:17:00.870Z,18.91
2018-09-03T18:19:29.231Z,19.06
2018-09-03T18:21:57.571Z,19.06
2018-09-03T18:24:25.776Z,19.03
2018-09-03T18:26:54.065Z,18.96
2018-09-03T18:29:24.214Z,18.82
2018-09-03T18:31:52.484Z,18.76
2018-09-03T18:34:20.903Z,18.68
2018-09-03T18:36:50.918Z,18.67
2018-09-03T18:39:19.505Z,18.58
2018-09-03T18:41:49.061Z,18.54
2018-09-03T18:44:19.843Z,18.56
2018-09-03T18:46:49.978Z,18.60
2018-09-03T18:49:18.533Z,18.54
2018-09-03T18:51:46.816Z,18.57
2018-09-03T18:54:15.186Z,18.45
2018-09-03T18:56:43.649Z,18.46
2018-09-03T18:59:11.849Z,18.49
2018-09-03T19:01:40.386Z,18.39
2018-09-03T19:04:08.851Z,18.32
2018-09-03T19:06:37.305Z,18.26
2018-09-03T19:09:07.182Z,18.23
2018-09-03T19:11:35.424Z,18.24
2018-09-03T19:14:03.760Z,18.32
2018-09-03T19:16:33.021Z,18.56
2018-09-03T19:19:01.522Z,18.63
2018-09-03T19:21:29.786Z,18.46
2018-09-03T19:23:58.083Z,18.42
2018-09-03T19:26:26.284Z,18.49
2018-09-03T19:28:54.551Z,18.50
2018-09-03T19:31:22.917Z,18.46
2018-09-03T19:33:51.403Z,18.47
2018-09-03T19:36:19.563Z,18.49
2018-09-03T19:38:47.775Z,18.49
2018-09-03T19:41:16.211Z,18.50
2018-09-03T19:43:44.447Z,18.53
2018-09-03T19:46:12.809Z,18.54
2018-09-03T19:48:41.067Z,18.62
2018-09-03T19:51:09.200Z,18.66
2018-09-03T19:53:37.422Z,18.68
2018-09-03T19:56:06.026Z,18.69
2018-09-03T19:58:34.392Z,18.63
2018-09-03T20:01:02.567Z,18.59
2018-09-03T20:03:30.744Z,18.42
2018-09-03T20:05:59.266Z,18.36
2018-09-03T20:08:27.428Z,18.42
2018-09-03T20:10:55.640Z,18.24
2018-09-03T20:13:23.976Z,18.23
2018-09-03T20:15:52.556Z,18.21
2018-09-03T20:18:20.669Z,18.18
2018-09-03T20:20:48.817Z,18.20
2018-09-03T20:23:17.015Z,18.23
2018-09-03T20:25:45.113Z,18.22
2018-09-03T20:28:13.244Z,18.11
2018-09-03T20:30:41.516Z,18.13
2018-09-03T20:33:09.817Z,18.19
2018-09-03T20:35:37.967Z,18.25
2018-09-03T20:38:06.129Z,18.22
2018-09-03T20:40:34.227Z,18.11
2018-09-03T20:43:02.552Z,18.10
2018-09-03T20:45:30.869Z,18.12
2018-09-03T20:47:59.124Z,18.00
2018-09-03T20:50:27.280Z,18.05
2018-09-03T20:52:55.480Z,17.98
2018-09-03T20:55:24.009Z,18.00
2018-09-03T20:57:52.214Z,18.06
2018-09-03T21:00:20.299Z,18.01
2018-09-03T21:02:48.488Z,17.97
2018-09-03T21:05:16.571Z,17.90
2018-09-03T21:07:44.714Z,17.87
2018-09-03T21:10:12.857Z,17.90
2018-09-03T21:12:41.001Z,17.93
2018-09-03T21:15:09.073Z,18.03
2018-09-03T21:17:37.404Z,17.99
2018-09-03T21:20:05.885Z,18.06
2018-09-03T21:22:34.041Z,18.02
2018-09-03T21:25:02.305Z,17.95
2018-09-03T21:27:30.403Z,17.95
2018-09-03T21:29:58.416Z,17.95
2018-09-03T21:32:26.537Z,18.16
2018-09-03T21:34:54.709Z,17.96
2018-09-03T21:37:22.840Z,17.91
2018-09-03T21:39:50.978Z,17.93
2018-09-03T21:42:19.112Z,17.90
2018-09-03T21:44:47.239Z,17.88
2018-09-03T21:47:15.513Z,17.90
2018-09-03T21:49:43.603Z,17.83
2018-09-03T21:52:11.670Z,17.81
2018-09-03T21:54:39.762Z,17.84
2018-09-03T21:57:08.027Z,17.84
2018-09-03T21:59:36.143Z,17.80
2018-09-03T22:02:08.096Z,17.79
2018-09-03T22:04:36.905Z,17.71
2018-09-03T22:07:04.970Z,17.67
2018-09-03T22:09:33.076Z,17.66
2018-09-03T22:12:01.151Z,17.65
2018-09-03T22:14:29.284Z,17.67
2018-09-03T22:16:57.405Z,17.64
2018-09-03T22:19:25.425Z,17.68
2018-09-03T22:21:53.603Z,17.70
2018-09-03T22:24:21.756Z,17.69
2018-09-03T22:26:50.412Z,17.67
2018-09-03T22:29:18.501Z,17.69
2018-09-03T22:31:46.594Z,17.71
2018-09-03T22:34:14.710Z,17.70
2018-09-03T22:36:43.737Z,17.72
2018-09-03T22:39:12.221Z,17.72
2018-09-03T22:41:40.285Z,17.66
2018-09-03T22:44:08.397Z,17.64
2018-09-03T22:46:36.531Z,17.64
2018-09-03T22:49:04.854Z,17.69
2018-09-03T22:51:32.986Z,17.62
2018-09-03T22:54:01.076Z,17.60
2018-09-03T22:56:29.143Z,17.56
2018-09-03T22:58:57.400Z,17.54
2018-09-03T23:01:25.547Z,17.55
2018-09-03T23:03:53.745Z,17.57
2018-09-03T23:06:21.830Z,17.58
2018-09-03T23:08:49.877Z,17.59
2018-09-03T23:11:18.018Z,17.59
2018-09-03T23:13:46.147Z,17.46
2018-09-03T23:16:14.219Z,17.43
2018-09-03T23:18:42.316Z,17.39
2018-09-03T23:21:10.481Z,17.43
2018-09-03T23:23:38.581Z,17.44
2018-09-03T23:26:06.655Z,17.39
2018-09-03T23:28:34.739Z,17.41
2018-09-03T23:31:02.776Z,17.34
2018-09-03T23:33:30.925Z,17.33
2018-09-03T23:35:58.908Z,17.20
2018-09-03T23:38:27.100Z,17.12
2018-09-03T23:40:55.302Z,17.12
2018-09-03T23:43:23.339Z,17.10
2018-09-03T23:45:51.379Z,17.12
2018-09-03T23:48:19.445Z,17.06
2018-09-03T23:50:47.633Z,16.88
2018-09-03T23:53:15.886Z,16.76
2018-09-03T23:55:43.943Z,16.76
2018-09-03T23:58:11.976Z,16.71
